createdAt,value
2019-02-05T00:00:48.684Z,2.79
2019-02-05T00:03:21.253Z,2.83
2019-02-05T00:05:50.629Z,2.86
2019-02-05T00:08:19.735Z,2.83
2019-02-05T00:10:48.693Z,2.85
2019-02-05T00:13:17.711Z,2.88
2019-02-05T00:15:46.872Z,2.88
2019-02-05T00:18:15.754Z,2.88
2019-02-05T00:20:44.631Z,2.87
2019-02-05T00:23:13.491Z,2.86
2019-02-05T00:25:42.414Z,2.86
2019-02-05T00:28:11.612Z,2.83
2019-02-05T00:30:40.462Z,2.87
2019-02-05T00:33:09.355Z,2.90
2019-02-05T00:35:38.530Z,2.94
2019-02-05T00:38:07.458Z,2.86
2019-02-05T00:40:36.391Z,2.93
2019-02-05T00:43:05.610Z,2.88
2019-02-05T00:45:34.567Z,2.93
2019-02-05T00:48:03.785Z,2.90
2019-02-05T00:50:32.754Z,2.89
2019-02-05T00:53:01.543Z,2.92
2019-02-05T00:55:30.967Z,2.93
2019-02-05T00:58:00.088Z,2.93
2019-02-05T01:00:30.593Z,2.93
2019-02-05T01:02:59.633Z,2.82
2019-02-05T01:05:28.682Z,2.90
2019-02-05T01:07:58.019Z,2.87
2019-02-05T01:10:27.336Z,2.88
2019-02-05T01:12:57.016Z,2.89
2019-02-05T01:15:26.160Z,2.84
2019-02-05T01:17:55.162Z,2.75
2019-02-05T01:20:24.291Z,2.57
2019-02-05T01:22:53.483Z,2.70
2019-02-05T01:25:22.673Z,2.73
2019-02-05T01:27:51.908Z,2.69
2019-02-05T01:30:23.051Z,2.68
2019-02-05T01:32:55.294Z,2.70
2019-02-05T01:35:36.685Z,2.72
2019-02-05T01:38:06.197Z,2.72
2019-02-05T01:40:35.082Z,2.78
2019-02-05T01:43:04.328Z,2.72
2019-02-05T01:45:33.438Z,2.73
2019-02-05T01:48:02.366Z,2.70
2019-02-05T01:50:31.156Z,2.74
2019-02-05T01:53:00.355Z,2.73
2019-02-05T01:55:29.411Z,2.71
2019-02-05T01:58:02.040Z,2.78
2019-02-05T02:00:34.130Z,2.76
2019-02-05T02:03:03.140Z,2.76
2019-02-05T02:05:32.225Z,2.80
2019-02-05T02:08:01.290Z,2.81
2019-02-05T02:10:30.792Z,2.77
2019-02-05T02:12:59.725Z,2.80
2019-02-05T02:15:28.715Z,2.80
2019-02-05T02:17:57.632Z,2.84
2019-02-05T02:20:31.266Z,2.87
2019-02-05T02:23:00.291Z,2.84
2019-02-05T02:25:29.766Z,2.86
2019-02-05T02:27:58.743Z,2.84
2019-02-05T02:30:33.353Z,2.86
2019-02-05T02:33:02.170Z,2.89
2019-02-05T02:35:31.037Z,2.81
2019-02-05T02:38:00.214Z,2.83
2019-02-05T02:40:29.171Z,2.85
2019-02-05T02:42:58.057Z,2.89
2019-02-05T02:45:27.224Z,2.89
2019-02-05T02:47:55.979Z,2.87
2019-02-05T02:50:25.184Z,2.87
2019-02-05T02:52:54.149Z,2.89
2019-02-05T02:55:23.085Z,2.88
2019-02-05T02:57:52.188Z,2.94
2019-02-05T03:00:21.583Z,2.91
2019-02-05T03:02:51.310Z,2.75
2019-02-05T03:05:22.325Z,2.85
2019-02-05T03:07:51.393Z,2.87
2019-02-05T03:10:22.796Z,2.87
2019-02-05T03:12:51.827Z,2.76
2019-02-05T03:15:20.786Z,2.78
2019-02-05T03:17:49.834Z,2.76
2019-02-05T03:20:18.889Z,2.76
2019-02-05T03:22:48.136Z,2.72
2019-02-05T03:25:19.312Z,2.61
2019-02-05T03:27:48.332Z,2.78
2019-02-05T03:30:18.927Z,2.76
2019-02-05T03:32:47.970Z,2.78
2019-02-05T03:35:18.779Z,2.75
2019-02-05T03:37:47.765Z,2.75
2019-02-05T03:41:04.267Z,2.73
2019-02-05T03:43:34.310Z,2.82
2019-02-05T03:46:06.303Z,2.83
2019-02-05T03:48:36.825Z,2.78
2019-02-05T03:51:50.850Z,2.83
2019-02-05T03:54:55.363Z,2.84
2019-02-05T03:58:05.248Z,2.88
2019-02-05T04:01:21.237Z,2.84
2019-02-05T04:04:38.919Z,2.85
2019-02-05T04:07:30.098Z,2.89
2019-02-05T04:10:26.062Z,2.93
2019-02-05T04:13:33.411Z,2.91
2019-02-05T04:16:34.841Z,2.93
2019-02-05T04:19:43.747Z,2.93
2019-02-05T04:22:37.535Z,2.94
2019-02-05T04:25:34.762Z,2.89
2019-02-05T04:28:26.640Z,2.80
2019-02-05T04:31:40.414Z,2.84
2019-02-05T04:34:36.126Z,2.81
2019-02-05T04:37:41.846Z,2.91
2019-02-05T04:41:05.741Z,2.83
2019-02-05T04:44:39.791Z,2.93
2019-02-05T04:47:34.531Z,2.91
2019-02-05T04:50:23.659Z,2.90
2019-02-05T04:53:34.436Z,2.91
2019-02-05T04:56:28.156Z,2.96
2019-02-05T04:59:41.161Z,2.88
2019-02-05T05:02:43.918Z,2.89
2019-02-05T05:06:04.814Z,2.92
2019-02-05T05:09:09.055Z,3.01
2019-02-05T05:11:40.889Z,2.94
2019-02-05T05:14:08.701Z,2.96
2019-02-05T05:16:37.749Z,2.95
2019-02-05T05:19:06.867Z,2.91
2019-02-05T05:21:36.229Z,2.92
2019-02-05T05:24:05.766Z,2.97
2019-02-05T05:26:34.826Z,2.92
2019-02-05T05:29:03.860Z,2.95
2019-02-05T05:31:32.875Z,2.95
2019-02-05T05:34:01.785Z,2.96
2019-02-05T05:36:30.897Z,2.99
2019-02-05T05:38:59.770Z,2.99
2019-02-05T05:41:28.656Z,2.97
2019-02-05T05:43:57.502Z,2.92
2019-02-05T05:46:26.607Z,2.98
2019-02-05T05:48:55.374Z,2.95
2019-02-05T05:51:24.449Z,3.00
2019-02-05T05:53:53.386Z,3.01
2019-02-05T05:56:22.643Z,2.96
2019-02-05T05:58:51.488Z,3.01
2019-02-05T06:01:20.303Z,3.03
2019-02-05T06:03:49.299Z,2.95
2019-02-05T06:06:18.328Z,3.04
2019-02-05T06:08:48.180Z,3.06
2019-02-05T06:11:17.582Z,3.01
2019-02-05T06:13:46.725Z,2.97
2019-02-05T06:16:15.482Z,3.07
2019-02-05T06:18:44.299Z,3.03
2019-02-05T06:21:13.819Z,3.01
2019-02-05T06:23:42.605Z,3.11
2019-02-05T06:26:11.535Z,3.04
2019-02-05T06:28:40.796Z,2.97
2019-02-05T06:31:09.619Z,3.08
2019-02-05T06:33:38.735Z,3.07
2019-02-05T06:36:07.536Z,3.10
2019-02-05T06:38:36.760Z,3.12
2019-02-05T06:41:05.845Z,3.13
2019-02-05T06:43:34.775Z,3.12
2019-02-05T06:46:03.639Z,3.09
2019-02-05T06:48:32.645Z,3.09
2019-02-05T06:51:01.507Z,3.08
2019-02-05T06:53:30.549Z,3.09
2019-02-05T06:55:59.821Z,3.05
2019-02-05T06:58:28.940Z,3.09
2019-02-05T07:00:58.331Z,3.13
2019-02-05T07:03:27.317Z,3.13
2019-02-05T07:05:56.295Z,3.02
2019-02-05T07:08:25.352Z,3.07
2019-02-05T07:10:54.666Z,3.11
2019-02-05T07:13:23.704Z,3.09
2019-02-05T07:15:52.557Z,3.10
2019-02-05T07:18:21.597Z,3.09
2019-02-05T07:20:50.450Z,3.11
2019-02-05T07:23:19.351Z,3.13
2019-02-05T07:25:48.174Z,3.13
2019-02-05T07:28:32.383Z,3.08
2019-02-05T07:31:02.296Z,3.14
2019-02-05T07:33:31.236Z,3.12
2019-02-05T07:36:00.304Z,3.08
2019-02-05T07:38:29.155Z,3.13
2019-02-05T07:40:57.942Z,3.14
2019-02-05T07:43:26.730Z,3.18
2019-02-05T07:45:55.850Z,3.19
2019-02-05T07:48:25.781Z,3.20
2019-02-05T07:50:54.570Z,3.21
2019-02-05T07:53:23.556Z,3.19
2019-02-05T07:55:52.744Z,3.20
2019-02-05T07:58:21.605Z,3.16
2019-02-05T08:00:50.488Z,3.22
2019-02-05T08:03:19.563Z,3.19
2019-02-05T08:05:48.418Z,3.21
2019-02-05T08:08:17.355Z,3.26
2019-02-05T08:10:46.294Z,3.20
2019-02-05T08:13:15.236Z,3.26
2019-02-05T08:15:44.727Z,3.27
2019-02-05T08:18:13.718Z,3.29
2019-02-05T08:20:42.787Z,3.33
2019-02-05T08:23:11.773Z,3.33
2019-02-05T08:25:41.034Z,3.29
2019-02-05T08:28:10.082Z,3.30
2019-02-05T08:30:44.641Z,3.34
2019-02-05T08:33:13.770Z,3.34
2019-02-05T08:35:42.797Z,3.36
2019-02-05T08:38:14.203Z,3.40
2019-02-05T08:40:45.209Z,3.41
2019-02-05T08:43:32.976Z,3.41
2019-02-05T08:46:02.170Z,3.40
2019-02-05T08:48:31.192Z,3.43
2019-02-05T08:51:00.177Z,3.42
2019-02-05T08:53:29.453Z,3.50
2019-02-05T08:55:58.886Z,3.47
2019-02-05T08:58:31.072Z,3.46
2019-02-05T09:00:58.835Z,3.47
2019-02-05T09:03:28.057Z,3.51
2019-02-05T09:05:56.960Z,3.45
2019-02-05T09:08:25.995Z,3.52
2019-02-05T09:10:54.994Z,3.48
2019-02-05T09:13:24.322Z,3.59
2019-02-05T09:15:53.791Z,3.59
2019-02-05T09:18:24.429Z,3.35
2019-02-05T09:20:53.348Z,3.60
2019-02-05T09:23:22.301Z,3.64
2019-02-05T09:25:51.348Z,3.62
2019-02-05T09:28:20.278Z,3.56
2019-02-05T09:30:49.211Z,3.65
2019-02-05T09:33:18.335Z,3.68
2019-02-05T09:35:47.369Z,3.72
2019-02-05T09:38:16.339Z,3.77
2019-02-05T09:40:45.322Z,3.76
2019-02-05T09:43:14.632Z,3.77
2019-02-05T09:45:44.223Z,3.75
2019-02-05T09:48:14.963Z,3.75
2019-02-05T09:50:45.147Z,3.83
2019-02-05T09:53:14.220Z,3.84
2019-02-05T09:55:43.276Z,3.88
2019-02-05T09:58:12.619Z,3.92
2019-02-05T10:00:41.827Z,3.88
2019-02-05T10:03:11.148Z,3.90
2019-02-05T10:05:40.096Z,3.85
2019-02-05T10:08:09.053Z,3.86
2019-02-05T10:10:37.950Z,3.90
2019-02-05T10:13:07.812Z,3.91
2019-02-05T10:15:38.002Z,3.90
2019-02-05T10:18:08.275Z,3.91
2019-02-05T10:20:37.642Z,3.91
2019-02-05T10:23:08.267Z,3.92
2019-02-05T10:25:37.368Z,3.96
2019-02-05T10:28:06.908Z,3.97
2019-02-05T10:30:43.710Z,3.97
2019-02-05T10:33:13.005Z,3.94
2019-02-05T10:35:42.079Z,3.99
2019-02-05T10:38:11.195Z,4.01
2019-02-05T10:40:39.979Z,4.02
2019-02-05T10:43:08.893Z,4.06
2019-02-05T10:45:38.261Z,4.11
2019-02-05T10:48:08.828Z,4.15
2019-02-05T10:50:37.926Z,4.17
2019-02-05T10:53:07.264Z,4.20
2019-02-05T10:55:36.592Z,4.27
2019-02-05T10:58:06.545Z,4.35
2019-02-05T11:00:35.857Z,4.36
2019-02-05T11:03:13.605Z,4.41
2019-02-05T11:05:42.838Z,4.48
2019-02-05T11:08:12.206Z,4.54
2019-02-05T11:10:40.996Z,4.54
2019-02-05T11:13:09.876Z,4.55
2019-02-05T11:15:39.154Z,4.62
2019-02-05T11:18:10.110Z,4.64
2019-02-05T11:20:39.196Z,4.73
2019-02-05T11:23:08.667Z,4.72
2019-02-05T11:25:37.826Z,4.73
2019-02-05T11:28:16.473Z,4.78
2019-02-05T11:30:46.770Z,4.82
2019-02-05T11:33:16.174Z,4.86
2019-02-05T11:35:46.761Z,4.90
2019-02-05T11:38:15.702Z,4.99
2019-02-05T11:40:44.677Z,5.04
2019-02-05T11:43:13.818Z,4.99
2019-02-05T11:45:42.825Z,5.08
2019-02-05T11:48:16.153Z,5.12
2019-02-05T11:50:45.105Z,5.18
2019-02-05T11:53:16.166Z,5.23
2019-02-05T11:55:45.675Z,5.14
2019-02-05T11:58:15.177Z,5.12
2019-02-05T12:01:01.557Z,5.09
2019-02-05T12:03:30.415Z,5.07
2019-02-05T12:05:59.637Z,5.06
2019-02-05T12:08:28.502Z,5.04
2019-02-05T12:10:57.632Z,5.04
2019-02-05T12:13:26.698Z,5.05
2019-02-05T12:15:55.597Z,5.08
2019-02-05T12:18:24.822Z,5.11
2019-02-05T12:20:53.919Z,5.15
2019-02-05T12:23:22.888Z,5.15
2019-02-05T12:25:51.990Z,5.15
2019-02-05T12:28:21.951Z,5.18
2019-02-05T12:30:51.005Z,5.13
2019-02-05T12:33:20.081Z,5.12
2019-02-05T12:35:49.165Z,5.10
2019-02-05T12:38:18.256Z,5.13
2019-02-05T12:40:47.153Z,5.06
2019-02-05T12:43:16.662Z,5.11
2019-02-05T12:45:45.664Z,5.10
2019-02-05T12:48:14.429Z,5.15
2019-02-05T12:50:43.780Z,5.13
2019-02-05T12:53:13.001Z,5.04
2019-02-05T12:55:42.358Z,5.03
2019-02-05T12:58:11.538Z,5.00
2019-02-05T13:00:42.415Z,5.03
2019-02-05T13:03:12.256Z,4.99
2019-02-05T13:05:42.319Z,4.99
2019-02-05T13:08:11.399Z,5.00
2019-02-05T13:10:42.739Z,5.01
2019-02-05T13:13:11.791Z,5.03
2019-02-05T13:15:40.902Z,5.05
2019-02-05T13:18:09.907Z,5.01
2019-02-05T13:20:39.426Z,4.97
2019-02-05T13:23:09.061Z,5.01
2019-02-05T13:25:38.426Z,5.07
2019-02-05T13:28:09.347Z,5.11
2019-02-05T13:30:38.453Z,5.11
2019-02-05T13:33:07.784Z,5.08
2019-02-05T13:35:37.212Z,5.13
2019-02-05T13:38:06.700Z,5.11
2019-02-05T13:40:35.765Z,5.18
2019-02-05T13:43:05.267Z,5.17
2019-02-05T13:45:35.360Z,5.18
2019-02-05T13:48:11.809Z,5.15
2019-02-05T13:50:44.552Z,5.21
2019-02-05T13:53:31.466Z,5.19
2019-02-05T13:56:17.272Z,5.21
2019-02-05T13:58:59.419Z,5.22
2019-02-05T14:01:33.613Z,5.24
2019-02-05T14:04:06.880Z,5.24
2019-02-05T14:06:37.152Z,5.26
2019-02-05T14:09:11.959Z,5.26
2019-02-05T14:11:42.477Z,5.30
2019-02-05T14:14:13.008Z,5.27
2019-02-05T14:16:44.305Z,5.28
2019-02-05T14:19:15.698Z,5.24
2019-02-05T14:21:46.101Z,5.26
2019-02-05T14:24:17.431Z,5.29
2019-02-05T14:26:46.439Z,5.30
2019-02-05T14:29:16.996Z,5.29
2019-02-05T14:31:46.069Z,5.33
2019-02-05T14:34:15.018Z,5.29
2019-02-05T14:36:44.158Z,5.27
2019-02-05T14:39:13.123Z,5.29
2019-02-05T14:41:43.168Z,5.31
2019-02-05T14:44:11.953Z,5.27
2019-02-05T14:46:41.096Z,5.24
2019-02-05T14:49:10.309Z,5.29
2019-02-05T14:51:39.154Z,5.31
2019-02-05T14:54:08.110Z,5.31
2019-02-05T14:56:37.521Z,5.31
2019-02-05T14:59:06.987Z,5.25
2019-02-05T15:01:42.812Z,5.29
2019-02-05T15:04:06.582Z,5.28
2019-02-05T15:06:38.341Z,5.29
2019-02-05T15:09:09.287Z,5.29
2019-02-05T15:11:38.317Z,5.26
2019-02-05T15:14:07.465Z,5.23
2019-02-05T15:16:37.857Z,5.30
2019-02-05T15:19:06.860Z,5.23
2019-02-05T15:21:35.728Z,5.21
2019-02-05T15:24:04.838Z,5.21
2019-02-05T15:26:34.644Z,5.19
2019-02-05T15:29:09.932Z,5.22
2019-02-05T15:31:35.459Z,5.18
2019-02-05T15:34:25.239Z,5.23
2019-02-05T15:36:54.107Z,5.15
2019-02-05T15:39:23.197Z,5.21
2019-02-05T15:41:52.412Z,5.12
2019-02-05T15:44:21.470Z,5.15
2019-02-05T15:46:50.789Z,5.16
2019-02-05T15:49:19.970Z,5.17
2019-02-05T15:51:50.399Z,5.17
2019-02-05T15:54:19.250Z,5.14
2019-02-05T15:56:48.126Z,5.11
2019-02-05T15:59:19.151Z,5.17
2019-02-05T16:01:48.224Z,5.12
2019-02-05T16:04:17.072Z,5.12
2019-02-05T16:06:46.341Z,5.17
2019-02-05T16:09:15.926Z,5.15
2019-02-05T16:11:45.101Z,5.09
2019-02-05T16:14:14.301Z,5.15
2019-02-05T16:16:43.193Z,5.16
2019-02-05T16:19:12.170Z,5.11
2019-02-05T16:21:41.021Z,5.06
2019-02-05T16:24:10.441Z,5.12
2019-02-05T16:26:39.383Z,5.13
2019-02-05T16:29:08.503Z,5.16
2019-02-05T16:31:37.340Z,5.13
2019-02-05T16:34:06.382Z,5.08
2019-02-05T16:36:35.965Z,5.03
2019-02-05T16:39:07.710Z,5.05
2019-02-05T16:41:37.134Z,5.09
2019-02-05T16:44:06.083Z,5.11
2019-02-05T16:46:35.130Z,5.06
2019-02-05T16:49:04.918Z,5.11
2019-02-05T16:51:33.713Z,5.11
2019-02-05T16:54:02.596Z,5.05
2019-02-05T16:56:31.534Z,5.09
2019-02-05T16:59:00.996Z,5.03
2019-02-05T17:01:30.223Z,5.01
2019-02-05T17:03:59.780Z,5.01
2019-02-05T17:06:28.664Z,4.92
2019-02-05T17:08:57.833Z,4.89
2019-02-05T17:11:26.730Z,4.91
2019-02-05T17:14:08.112Z,4.92
2019-02-05T17:16:37.358Z,4.83
2019-02-05T17:19:07.142Z,4.84
2019-02-05T17:21:36.357Z,4.85
2019-02-05T17:24:05.359Z,4.87
2019-02-05T17:26:34.682Z,4.86
2019-02-05T17:29:04.227Z,4.83
2019-02-05T17:31:33.120Z,4.72
2019-02-05T17:34:02.294Z,4.82
2019-02-05T17:36:31.412Z,4.78
2019-02-05T17:39:00.186Z,4.82
2019-02-05T17:41:31.971Z,4.80
2019-02-05T17:44:00.954Z,4.75
2019-02-05T17:46:29.932Z,4.66
2019-02-05T17:48:59.067Z,4.69
2019-02-05T17:51:34.840Z,4.70
2019-02-05T17:54:04.996Z,4.66
2019-02-05T17:56:35.455Z,4.70
2019-02-05T17:59:06.118Z,4.65
2019-02-05T18:01:36.637Z,4.69
2019-02-05T18:04:14.357Z,4.67
2019-02-05T18:06:43.894Z,4.67
2019-02-05T18:09:13.179Z,4.60
2019-02-05T18:11:42.407Z,4.42
2019-02-05T18:14:11.579Z,4.50
2019-02-05T18:17:14.918Z,4.61
2019-02-05T18:19:43.799Z,4.60
2019-02-05T18:22:23.358Z,4.47
2019-02-05T18:24:52.198Z,4.55
2019-02-05T18:27:21.065Z,4.60
2019-02-05T18:29:53.220Z,4.61
2019-02-05T18:32:22.323Z,4.57
2019-02-05T18:34:51.163Z,4.59
2019-02-05T18:37:20.306Z,4.48
2019-02-05T18:39:49.241Z,4.53
2019-02-05T18:42:18.165Z,4.28
2019-02-05T18:44:48.205Z,4.47
2019-02-05T18:47:17.079Z,4.47
2019-02-05T18:49:46.046Z,4.52
2019-02-05T18:52:15.123Z,4.42
2019-02-05T18:54:43.956Z,4.33
2019-02-05T18:57:13.774Z,4.37
2019-02-05T18:59:42.799Z,4.30
2019-02-05T19:02:11.673Z,4.41
2019-02-05T19:04:40.813Z,4.33
2019-02-05T19:07:11.686Z,4.22
2019-02-05T19:09:41.748Z,4.17
2019-02-05T19:12:10.538Z,4.26
2019-02-05T19:14:39.935Z,4.03
2019-02-05T19:17:08.969Z,4.12
2019-02-05T19:19:39.123Z,4.19
2019-02-05T19:22:10.456Z,4.10
2019-02-05T19:24:59.111Z,4.09
2019-02-05T19:27:28.124Z,4.18
2019-02-05T19:29:57.394Z,4.11
2019-02-05T19:32:28.383Z,4.10
2019-02-05T19:34:58.645Z,4.11
2019-02-05T19:37:27.482Z,4.10
2019-02-05T19:39:58.555Z,4.07
2019-02-05T19:42:29.964Z,3.96
2019-02-05T19:45:10.267Z,3.97
2019-02-05T19:47:40.399Z,4.03
2019-02-05T19:50:09.466Z,4.05
2019-02-05T19:52:39.419Z,3.87
2019-02-05T19:55:08.564Z,3.86
2019-02-05T19:57:38.095Z,3.86
2019-02-05T20:00:08.037Z,3.90
2019-02-05T20:02:39.782Z,3.84
2019-02-05T20:05:09.245Z,3.84
2019-02-05T20:07:38.242Z,3.62
2019-02-05T20:10:08.494Z,3.74
2019-02-05T20:12:37.807Z,3.76
2019-02-05T20:15:07.777Z,3.62
2019-02-05T20:17:38.222Z,3.62
2019-02-05T20:20:09.848Z,3.65
2019-02-05T20:22:38.779Z,3.63
2019-02-05T20:25:10.606Z,3.60
2019-02-05T20:27:39.667Z,3.58
2019-02-05T20:30:10.587Z,3.53
2019-02-05T20:32:39.796Z,3.50
2019-02-05T20:35:08.776Z,3.46
2019-02-05T20:37:37.655Z,3.52
2019-02-05T20:40:21.758Z,3.52
2019-02-05T20:42:42.341Z,3.54
2019-02-05T20:45:14.425Z,3.50
2019-02-05T20:47:43.250Z,3.48
2019-02-05T20:50:14.892Z,3.44
2019-02-05T20:52:43.822Z,3.40
2019-02-05T20:55:14.142Z,3.43
2019-02-05T20:57:43.110Z,3.37
2019-02-05T21:00:15.617Z,3.24
2019-02-05T21:02:44.788Z,3.35
2019-02-05T21:05:14.990Z,3.33
2019-02-05T21:07:44.097Z,3.19
2019-02-05T21:10:16.243Z,3.26
2019-02-05T21:12:45.318Z,3.28
2019-02-05T21:15:15.237Z,3.28
2019-02-05T21:17:44.604Z,3.18
2019-02-05T21:20:15.779Z,3.22
2019-02-05T21:22:44.642Z,3.09
2019-02-05T21:25:15.289Z,2.95
2019-02-05T21:27:44.335Z,3.10
2019-02-05T21:30:15.766Z,3.13
2019-02-05T21:32:47.769Z,3.00
2019-02-05T21:35:15.578Z,2.97
2019-02-05T21:37:45.067Z,3.02
2019-02-05T21:40:18.045Z,2.84
2019-02-05T21:42:46.807Z,3.00
2019-02-05T21:45:18.098Z,2.85
2019-02-05T21:47:47.467Z,3.05
2019-02-05T21:50:18.481Z,3.09
2019-02-05T21:52:48.657Z,3.03
2019-02-05T21:55:18.217Z,2.94
2019-02-05T21:57:48.744Z,2.94
2019-02-05T22:00:23.666Z,2.95
2019-02-05T22:02:52.646Z,2.88
2019-02-05T22:05:21.708Z,2.97
2019-02-05T22:07:50.515Z,2.91
2019-02-05T22:10:20.265Z,2.88
2019-02-05T22:12:49.468Z,2.89
2019-02-05T22:15:18.809Z,2.78
2019-02-05T22:17:47.889Z,2.79
2019-02-05T22:20:18.919Z,2.83
2019-02-05T22:22:47.931Z,2.84
2019-02-05T22:25:19.926Z,2.65
2019-02-05T22:27:49.088Z,2.80
2019-02-05T22:30:29.181Z,2.70
2019-02-05T22:32:58.378Z,2.62
2019-02-05T22:35:27.559Z,2.66
2019-02-05T22:37:56.718Z,2.62
2019-02-05T22:40:26.873Z,2.68
2019-02-05T22:42:56.368Z,2.72
2019-02-05T22:45:27.150Z,2.78
2019-02-05T22:47:56.405Z,2.85
2019-02-05T22:50:26.789Z,2.65
2019-02-05T22:52:55.681Z,2.74
2019-02-05T22:55:24.866Z,2.65
2019-02-05T22:57:53.791Z,2.62
2019-02-05T23:00:49.456Z,2.59
2019-02-05T23:03:24.782Z,2.68
2019-02-05T23:06:19.676Z,2.45
2019-02-05T23:08:48.487Z,2.55
2019-02-05T23:11:49.553Z,2.57
2019-02-05T23:14:18.977Z,2.55
2019-02-05T23:16:48.042Z,2.66
2019-02-05T23:19:17.088Z,2.57
2019-02-05T23:21:46.025Z,2.53
2019-02-05T23:24:15.161Z,2.53
2019-02-05T23:26:43.936Z,2.38
2019-02-05T23:29:13.284Z,2.41
2019-02-05T23:31:42.151Z,2.53
2019-02-05T23:34:11.348Z,2.48
2019-02-05T23:36:40.386Z,2.46
2019-02-05T23:39:11.021Z,2.41
2019-02-05T23:41:40.190Z,2.39
2019-02-05T23:44:09.089Z,2.31
2019-02-05T23:46:37.907Z,2.32
2019-02-05T23:49:06.839Z,2.24
2019-02-05T23:51:36.462Z,2.00
2019-02-05T23:54:05.867Z,2.05
2019-02-05T23:56:35.068Z,2.04
2019-02-05T23:59:04.381Z,2.06
